createdAt,value
2019-04-03T00:00:42.526Z,98385.77
2019-04-03T00:03:10.280Z,98381.33
2019-04-03T00:05:38.075Z,98376.05
2019-04-03T00:08:06.392Z,98375.34
2019-04-03T00:10:36.007Z,98372.96
2019-04-03T00:13:05.074Z,98373.77
2019-04-03T00:15:32.847Z,98371.42
2019-04-03T00:18:00.651Z,98372.20
2019-04-03T00:20:28.474Z,98371.26
2019-04-03T00:22:56.324Z,98375.34
2019-04-03T00:25:24.234Z,98371.71
2019-04-03T00:27:52.458Z,98367.74
2019-04-03T00:30:22.489Z,98368.08
2019-04-03T00:32:53.162Z,98356.64
2019-04-03T00:35:23.209Z,98353.45
2019-04-03T00:37:52.883Z,98353.06
2019-04-03T00:40:20.776Z,98345.97
2019-04-03T00:42:50.550Z,98330.78
2019-04-03T00:45:18.385Z,98336.45
2019-04-03T00:47:46.108Z,98330.07
2019-04-03T00:50:38.692Z,98332.02
2019-04-03T00:53:06.445Z,98324.63
2019-04-03T00:55:34.209Z,98316.51
2019-04-03T00:58:25.513Z,98313.83
2019-04-03T01:01:12.696Z,98315.77
2019-04-03T01:03:40.836Z,98318.55
2019-04-03T01:06:08.796Z,98311.33
2019-04-03T01:08:36.681Z,98305.14
2019-04-03T01:11:19.593Z,98300.50
2019-04-03T01:13:47.361Z,98294.48
2019-04-03T01:16:15.179Z,98294.06
2019-04-03T01:18:43.000Z,98291.68
2019-04-03T01:21:10.846Z,98286.78
2019-04-03T01:23:38.673Z,98288.64
2019-04-03T01:26:09.411Z,98277.78
2019-04-03T01:28:36.232Z,98271.11
2019-04-03T01:31:19.379Z,98259.44
2019-04-03T01:33:47.256Z,98242.48
2019-04-03T01:36:17.227Z,98238.48
2019-04-03T01:38:44.827Z,98236.27
2019-04-03T01:41:12.736Z,98233.23
2019-04-03T01:43:40.523Z,98229.09
2019-04-03T01:46:08.331Z,98234.48
2019-04-03T01:48:36.077Z,98242.17
2019-04-03T01:51:03.866Z,98247.07
2019-04-03T01:53:32.698Z,98245.44
2019-04-03T01:56:04.272Z,98250.75
2019-04-03T01:58:31.274Z,98248.83
2019-04-03T02:00:59.207Z,98241.37
2019-04-03T02:03:28.489Z,98238.70
2019-04-03T02:05:56.259Z,98226.70
2019-04-03T02:08:24.016Z,98221.47
2019-04-03T02:10:52.004Z,98223.28
2019-04-03T02:13:21.083Z,98223.28
2019-04-03T02:15:50.756Z,98225.63
2019-04-03T02:18:19.072Z,98231.63
2019-04-03T02:20:47.145Z,98232.87
2019-04-03T02:23:15.088Z,98233.67
2019-04-03T02:25:42.942Z,98234.63
2019-04-03T02:28:10.706Z,98226.76
2019-04-03T02:30:38.670Z,98231.84
2019-04-03T02:33:06.461Z,98226.72
2019-04-03T02:35:34.221Z,98229.89
2019-04-03T02:38:02.002Z,98225.22
2019-04-03T02:40:32.545Z,98220.84
2019-04-03T02:43:15.382Z,98217.44
2019-04-03T02:45:43.481Z,98217.06
2019-04-03T02:48:11.351Z,98217.91
2019-04-03T02:50:39.131Z,98224.50
2019-04-03T02:53:06.893Z,98221.83
2019-04-03T02:55:34.660Z,98225.28
2019-04-03T02:58:02.361Z,98221.50
2019-04-03T03:00:33.112Z,98216.08
2019-04-03T03:02:59.818Z,98219.13
2019-04-03T03:05:28.885Z,98221.05
2019-04-03T03:07:57.004Z,98231.80
2019-04-03T03:10:25.099Z,98234.92
2019-04-03T03:12:53.104Z,98239.30
2019-04-03T03:15:21.386Z,98233.86
2019-04-03T03:17:54.568Z,98236.22
2019-04-03T03:20:23.391Z,98233.21
2019-04-03T03:22:51.809Z,98235.14
2019-04-03T03:25:20.065Z,98240.89
2019-04-03T03:27:47.846Z,98242.50
2019-04-03T03:30:42.700Z,98245.70
2019-04-03T03:32:46.069Z,98241.03
2019-04-03T03:35:28.042Z,98241.20
2019-04-03T03:37:50.705Z,98244.80
2019-04-03T03:40:19.318Z,98245.55
2019-04-03T03:42:47.633Z,98235.52
2019-04-03T03:45:20.618Z,98230.84
2019-04-03T03:47:50.085Z,98239.40
2019-04-03T03:50:26.253Z,98234.99
2019-04-03T03:52:55.129Z,98238.85
2019-04-03T03:55:25.511Z,98239.58
2019-04-03T03:57:53.521Z,98238.70
2019-04-03T04:00:23.614Z,98224.99
2019-04-03T04:02:50.996Z,98242.80
2019-04-03T04:05:21.440Z,98239.19
2019-04-03T04:07:48.835Z,98243.02
2019-04-03T04:10:37.714Z,98238.53
2019-04-03T04:13:05.808Z,98239.85
2019-04-03T04:15:33.827Z,98237.84
2019-04-03T04:18:02.814Z,98236.31
2019-04-03T04:20:31.168Z,98237.73
2019-04-03T04:22:59.808Z,98242.03
2019-04-03T04:25:29.762Z,98244.32
2019-04-03T04:27:59.162Z,98242.64
2019-04-03T04:30:27.670Z,98245.70
2019-04-03T04:32:55.545Z,98240.86
2019-04-03T04:35:23.385Z,98241.42
2019-04-03T04:37:51.202Z,98243.60
2019-04-03T04:40:18.921Z,98238.55
2019-04-03T04:42:46.900Z,98237.48
2019-04-03T04:45:14.658Z,98240.78
2019-04-03T04:47:45.784Z,98240.09
2019-04-03T04:50:19.802Z,98240.26
2019-04-03T04:52:47.529Z,98241.94
2019-04-03T04:55:15.346Z,98239.47
2019-04-03T04:57:43.230Z,98235.80
2019-04-03T05:00:11.262Z,98238.44
2019-04-03T05:02:39.308Z,98239.80
2019-04-03T05:05:08.923Z,98240.89
2019-04-03T05:07:36.879Z,98243.88
2019-04-03T05:10:05.839Z,98241.51
2019-04-03T05:12:34.256Z,98236.73
2019-04-03T05:15:02.237Z,98244.73
2019-04-03T05:17:30.085Z,98248.55
2019-04-03T05:19:57.835Z,98252.07
2019-04-03T05:22:25.655Z,98251.61
2019-04-03T05:24:53.421Z,98250.13
2019-04-03T05:27:22.399Z,98256.68
2019-04-03T05:29:50.233Z,98251.98
2019-04-03T05:32:18.006Z,98248.13
2019-04-03T05:34:45.828Z,98252.70
2019-04-03T05:37:14.980Z,98255.37
2019-04-03T05:39:42.940Z,98253.82
2019-04-03T05:42:10.798Z,98258.86
2019-04-03T05:44:38.703Z,98261.03
2019-04-03T05:47:08.118Z,98262.70
2019-04-03T05:49:47.178Z,98268.56
2019-04-03T05:52:15.647Z,98271.56
2019-04-03T05:54:44.580Z,98265.70
2019-04-03T05:57:14.057Z,98270.93
2019-04-03T05:59:44.148Z,98272.08
2019-04-03T06:02:16.206Z,98274.45
2019-04-03T06:04:41.928Z,98278.50
2019-04-03T06:07:10.035Z,98280.14
2019-04-03T06:09:37.860Z,98276.91
2019-04-03T06:12:08.353Z,98279.88
2019-04-03T06:14:35.471Z,98278.52
2019-04-03T06:17:03.225Z,98278.05
2019-04-03T06:19:32.539Z,98278.91
2019-04-03T06:22:00.724Z,98279.63
2019-04-03T06:24:28.516Z,98283.14
2019-04-03T06:26:56.322Z,98284.22
2019-04-03T06:29:24.129Z,98276.81
2019-04-03T06:31:51.959Z,98272.43
2019-04-03T06:34:19.787Z,98273.86
2019-04-03T06:36:49.777Z,98269.52
2019-04-03T06:39:17.558Z,98261.19
2019-04-03T06:41:45.769Z,98256.12
2019-04-03T06:44:13.597Z,98253.91
2019-04-03T06:46:41.415Z,98250.56
2019-04-03T06:49:09.223Z,98249.56
2019-04-03T06:51:37.034Z,98243.50
2019-04-03T06:54:07.194Z,98247.66
2019-04-03T06:56:34.729Z,98243.92
2019-04-03T06:59:02.537Z,98245.11
2019-04-03T07:01:30.561Z,98244.41
2019-04-03T07:03:58.531Z,98245.63
2019-04-03T07:06:26.560Z,98242.97
2019-04-03T07:08:54.475Z,98245.52
2019-04-03T07:11:23.932Z,98241.44
2019-04-03T07:13:53.951Z,98234.24
2019-04-03T07:16:21.674Z,98237.72
2019-04-03T07:18:49.491Z,98244.09
2019-04-03T07:21:17.364Z,98236.59
2019-04-03T07:23:45.178Z,98225.13
2019-04-03T07:26:12.991Z,98220.52
2019-04-03T07:28:42.253Z,98221.16
2019-04-03T07:31:25.440Z,98220.11
2019-04-03T07:33:53.187Z,98226.63
2019-04-03T07:36:21.144Z,98217.83
2019-04-03T07:38:48.921Z,98217.31
2019-04-03T07:41:16.687Z,98210.03
2019-04-03T07:43:44.754Z,98209.08
2019-04-03T07:46:12.627Z,98207.76
2019-04-03T07:48:40.440Z,98213.35
2019-04-03T07:51:08.471Z,98205.45
2019-04-03T07:53:36.317Z,98207.52
2019-04-03T07:56:04.196Z,98209.74
2019-04-03T07:58:32.629Z,98213.09
2019-04-03T08:01:05.988Z,98212.19
2019-04-03T08:03:33.793Z,98220.66
2019-04-03T08:06:03.250Z,98227.86
2019-04-03T08:08:31.448Z,98229.09
2019-04-03T08:10:59.759Z,98219.81
2019-04-03T08:13:31.211Z,98222.77
2019-04-03T08:16:00.163Z,98222.77
2019-04-03T08:18:28.575Z,98222.31
2019-04-03T08:20:57.634Z,98223.00
2019-04-03T08:23:26.098Z,98227.29
2019-04-03T08:25:54.753Z,98222.41
2019-04-03T08:28:25.543Z,98223.80
2019-04-03T08:30:52.569Z,98225.11
2019-04-03T08:33:26.215Z,98229.28
2019-04-03T08:35:50.051Z,98233.02
2019-04-03T08:38:17.846Z,98224.45
2019-04-03T08:40:45.862Z,98222.10
2019-04-03T08:43:14.137Z,98220.09
2019-04-03T08:45:42.100Z,98223.61
2019-04-03T08:48:09.850Z,98224.35
2019-04-03T08:51:03.494Z,98220.82
2019-04-03T08:53:31.648Z,98216.33
2019-04-03T08:55:59.496Z,98212.30
2019-04-03T08:58:27.290Z,98213.09
2019-04-03T09:00:55.317Z,98200.43
2019-04-03T09:03:23.765Z,98202.84
2019-04-03T09:05:52.332Z,98195.85
2019-04-03T09:08:21.196Z,98194.59
2019-04-03T09:10:49.298Z,98190.62
2019-04-03T09:13:21.870Z,98181.50
2019-04-03T09:15:46.783Z,98179.97
2019-04-03T09:18:15.129Z,98171.40
2019-04-03T09:20:47.954Z,98161.02
2019-04-03T09:23:15.818Z,98163.47
2019-04-03T09:25:43.838Z,98161.58
2019-04-03T09:28:11.863Z,98164.48
2019-04-03T09:30:40.124Z,98160.11
2019-04-03T09:33:08.067Z,98171.68
2019-04-03T09:35:36.627Z,98171.60
2019-04-03T09:38:04.411Z,98169.02
2019-04-03T09:40:32.712Z,98137.20
2019-04-03T09:43:00.456Z,98161.58
2019-04-03T09:45:28.687Z,98154.34
2019-04-03T09:47:57.013Z,98155.82
2019-04-03T09:50:25.330Z,98148.34
2019-04-03T09:52:54.899Z,98154.62
2019-04-03T09:55:22.867Z,98153.41
2019-04-03T09:57:52.669Z,98152.58
2019-04-03T10:00:20.630Z,98148.64
2019-04-03T10:02:49.174Z,98154.06
2019-04-03T10:05:18.356Z,98146.95
2019-04-03T10:07:46.185Z,98142.90
2019-04-03T10:10:16.953Z,98142.49
2019-04-03T10:12:48.073Z,98127.31
2019-04-03T10:15:17.962Z,98144.78
2019-04-03T10:17:44.933Z,98144.00
2019-04-03T10:20:24.282Z,98138.44
2019-04-03T10:22:53.997Z,98135.11
2019-04-03T10:25:22.631Z,98129.26
2019-04-03T10:27:50.441Z,98133.45
2019-04-03T10:30:22.362Z,98128.93
2019-04-03T10:32:50.409Z,98129.01
2019-04-03T10:35:18.393Z,98108.35
2019-04-03T10:37:47.104Z,98102.30
2019-04-03T10:40:15.827Z,98106.05
2019-04-03T10:42:43.597Z,98112.78
2019-04-03T10:45:11.703Z,98103.87
2019-04-03T10:47:43.314Z,98105.98
2019-04-03T10:50:10.682Z,98105.09
2019-04-03T10:52:38.567Z,98107.33
2019-04-03T10:55:07.397Z,98103.55
2019-04-03T10:57:35.500Z,98098.47
2019-04-03T11:00:05.451Z,98102.31
2019-04-03T11:02:33.277Z,98103.13
2019-04-03T11:05:01.151Z,98095.53
2019-04-03T11:07:29.202Z,98098.95
2019-04-03T11:10:13.369Z,98098.58
2019-04-03T11:12:41.604Z,98090.71
2019-04-03T11:15:12.544Z,98091.63
2019-04-03T11:17:40.594Z,98081.73
2019-04-03T11:20:11.022Z,98071.13
2019-04-03T11:22:41.578Z,98067.34
2019-04-03T11:25:13.950Z,98068.12
2019-04-03T11:27:43.567Z,98063.13
2019-04-03T11:30:12.406Z,98055.94
2019-04-03T11:32:41.674Z,98053.09
2019-04-03T11:35:10.596Z,98050.09
2019-04-03T11:37:38.443Z,98040.45
2019-04-03T11:40:07.585Z,98034.09
2019-04-03T11:42:35.458Z,98023.77
2019-04-03T11:45:04.883Z,98023.77
2019-04-03T11:47:33.243Z,98011.92
2019-04-03T11:50:01.116Z,98011.61
2019-04-03T11:52:28.915Z,98011.23
2019-04-03T11:54:57.080Z,98009.44
2019-04-03T11:57:26.910Z,98012.03
2019-04-03T11:59:59.840Z,98013.80
2019-04-03T12:02:27.605Z,98010.76
2019-04-03T12:04:55.442Z,97998.77
2019-04-03T12:07:25.128Z,97993.69
2019-04-03T12:09:53.247Z,97995.11
2019-04-03T12:12:21.081Z,97996.02
2019-04-03T12:14:49.625Z,97987.20
2019-04-03T12:17:17.962Z,97984.81
2019-04-03T12:19:46.205Z,97976.82
2019-04-03T12:22:14.418Z,97975.98
2019-04-03T12:24:42.209Z,97967.80
2019-04-03T12:27:10.001Z,97959.88
2019-04-03T12:29:37.811Z,97957.36
2019-04-03T12:32:07.938Z,97957.81
2019-04-03T12:34:37.582Z,97951.75
2019-04-03T12:37:05.016Z,97942.31
2019-04-03T12:39:33.035Z,97934.97
2019-04-03T12:42:00.802Z,97925.37
2019-04-03T12:44:28.758Z,97934.44
2019-04-03T12:46:56.810Z,97929.53
2019-04-03T12:49:24.579Z,97925.78
2019-04-03T12:51:52.511Z,97925.02
2019-04-03T12:54:21.122Z,97923.85
2019-04-03T12:56:49.623Z,97912.70
2019-04-03T12:59:20.352Z,97917.03
2019-04-03T13:01:49.233Z,97902.92
2019-04-03T13:04:17.598Z,97899.32
2019-04-03T13:06:45.622Z,97897.52
2019-04-03T13:09:14.077Z,97894.67
2019-04-03T13:11:42.028Z,97888.56
2019-04-03T13:14:22.053Z,97885.80
2019-04-03T13:16:41.516Z,97878.70
2019-04-03T13:19:10.741Z,97880.91
2019-04-03T13:21:39.825Z,97877.55
2019-04-03T13:24:10.709Z,97877.41
2019-04-03T13:26:38.177Z,97872.40
2019-04-03T13:29:08.191Z,97853.88
2019-04-03T13:31:35.703Z,97856.09
2019-04-03T13:34:03.544Z,97854.39
2019-04-03T13:36:31.384Z,97857.13
2019-04-03T13:39:01.260Z,97863.91
2019-04-03T13:41:29.003Z,97853.45
2019-04-03T13:43:56.793Z,97858.30
2019-04-03T13:46:24.616Z,97859.09
2019-04-03T13:48:52.862Z,97855.08
2019-04-03T13:51:21.053Z,97849.14
2019-04-03T13:53:48.961Z,97853.11
2019-04-03T13:56:17.264Z,97826.02
2019-04-03T13:58:45.168Z,97843.30
2019-04-03T14:01:12.998Z,97836.31
2019-04-03T14:03:40.920Z,97832.86
2019-04-03T14:06:08.726Z,97823.66
2019-04-03T14:08:36.551Z,97820.16
2019-04-03T14:11:14.410Z,97810.48
2019-04-03T14:13:43.640Z,97796.75
2019-04-03T14:16:19.954Z,97787.42
2019-04-03T14:18:42.325Z,97785.41
2019-04-03T14:21:10.786Z,97779.67
2019-04-03T14:23:40.639Z,97782.78
2019-04-03T14:26:12.595Z,97770.48
2019-04-03T14:28:38.622Z,97768.00
2019-04-03T14:31:07.192Z,97758.50
2019-04-03T14:33:42.952Z,97762.45
2019-04-03T14:36:05.070Z,97764.45
2019-04-03T14:38:33.622Z,97768.41
2019-04-03T14:41:02.127Z,97770.27
2019-04-03T14:43:32.965Z,97761.88
2019-04-03T14:45:59.596Z,97754.57
2019-04-03T14:48:27.660Z,97750.69
2019-04-03T14:50:55.574Z,97735.44
2019-04-03T14:53:23.503Z,97731.70
2019-04-03T14:55:51.334Z,97727.80
2019-04-03T14:58:19.129Z,97730.70
2019-04-03T15:00:48.615Z,97736.52
2019-04-03T15:03:17.014Z,97725.03
2019-04-03T15:05:45.426Z,97719.58
2019-04-03T15:08:13.328Z,97717.58
2019-04-03T15:10:41.079Z,97707.82
2019-04-03T15:13:09.051Z,97702.12
2019-04-03T15:15:37.124Z,97688.88
2019-04-03T15:18:05.439Z,97686.00
2019-04-03T15:20:33.954Z,97684.66
2019-04-03T15:23:05.238Z,97673.66
2019-04-03T15:25:31.715Z,97668.07
2019-04-03T15:28:00.388Z,97671.49
2019-04-03T15:30:28.535Z,97671.55
2019-04-03T15:32:56.289Z,97663.46
2019-04-03T15:35:24.323Z,97659.61
2019-04-03T15:37:52.340Z,97655.33
2019-04-03T15:40:20.814Z,97651.58
2019-04-03T15:42:53.761Z,97652.40
2019-04-03T15:45:22.457Z,97651.96
2019-04-03T15:47:54.047Z,97649.30
2019-04-03T15:50:20.768Z,97639.60
2019-04-03T15:52:50.360Z,97640.50
2019-04-03T15:55:18.630Z,97631.67
2019-04-03T15:57:46.759Z,97626.86
2019-04-03T16:00:40.010Z,97625.23
2019-04-03T16:03:08.766Z,97628.03
2019-04-03T16:05:37.222Z,97620.89
2019-04-03T16:08:05.679Z,97613.09
2019-04-03T16:10:34.373Z,97612.15
2019-04-03T16:13:02.176Z,97604.44
2019-04-03T16:15:29.970Z,97597.59
2019-04-03T16:17:57.741Z,97599.92
2019-04-03T16:20:40.716Z,97596.41
2019-04-03T16:23:08.469Z,97594.39
2019-04-03T16:25:36.243Z,97584.92
2019-04-03T16:28:04.119Z,97579.64
2019-04-03T16:30:31.991Z,97578.71
2019-04-03T16:33:03.092Z,97577.97
2019-04-03T16:35:29.483Z,97572.65
2019-04-03T16:37:57.964Z,97567.52
2019-04-03T16:40:26.765Z,97569.53
2019-04-03T16:42:54.592Z,97568.00
2019-04-03T16:45:22.947Z,97566.80
2019-04-03T16:47:51.754Z,97564.48
2019-04-03T16:50:19.932Z,97557.02
2019-04-03T16:52:48.345Z,97550.92
2019-04-03T16:55:16.862Z,97549.98
2019-04-03T16:57:45.624Z,97549.68
2019-04-03T17:00:18.740Z,97542.52
2019-04-03T17:02:46.557Z,97534.62
2019-04-03T17:05:14.735Z,97523.98
2019-04-03T17:07:45.158Z,97528.21
2019-04-03T17:10:13.059Z,97534.36
2019-04-03T17:12:40.902Z,97530.52
2019-04-03T17:15:09.759Z,97530.23
2019-04-03T17:17:37.706Z,97538.42
2019-04-03T17:20:06.985Z,97557.17
2019-04-03T17:22:35.046Z,97582.12
2019-04-03T17:25:04.878Z,97623.79
2019-04-03T17:27:32.646Z,97666.42
2019-04-03T17:30:01.041Z,97690.00
2019-04-03T17:32:29.918Z,97707.67
2019-04-03T17:34:58.794Z,97731.84
2019-04-03T17:37:29.676Z,97742.30
2019-04-03T17:39:56.615Z,97754.20
2019-04-03T17:42:25.908Z,97749.56
2019-04-03T17:44:53.888Z,97743.69
2019-04-03T17:47:21.718Z,97750.84
2019-04-03T17:49:52.966Z,97771.95
2019-04-03T17:52:20.799Z,97773.98
2019-04-03T17:54:48.593Z,97772.20
2019-04-03T17:57:17.550Z,97788.12
2019-04-03T17:59:48.864Z,97799.83
2019-04-03T18:02:15.642Z,97778.81
2019-04-03T18:04:43.704Z,97769.17
2019-04-03T18:07:12.217Z,97792.13
2019-04-03T18:09:55.259Z,97818.47
2019-04-03T18:12:25.859Z,97822.89
2019-04-03T18:14:53.643Z,97822.75
2019-04-03T18:17:21.662Z,97819.92
2019-04-03T18:19:49.446Z,97839.67
2019-04-03T18:22:20.055Z,97849.30
2019-04-03T18:24:47.075Z,97862.72
2019-04-03T18:27:14.929Z,97863.89
2019-04-03T18:29:44.783Z,97862.42
2019-04-03T18:32:13.627Z,97860.21
2019-04-03T18:34:48.416Z,97866.92
2019-04-03T18:37:14.948Z,97882.37
2019-04-03T18:39:42.829Z,97898.14
2019-04-03T18:42:10.917Z,97902.11
2019-04-03T18:44:38.743Z,97911.09
2019-04-03T18:47:07.219Z,97917.78
2019-04-03T18:49:35.490Z,97937.41
2019-04-03T18:52:03.359Z,97950.84
2019-04-03T18:54:31.215Z,97951.11
2019-04-03T18:56:59.025Z,97946.97
2019-04-03T18:59:26.829Z,97948.09
2019-04-03T19:01:54.719Z,97947.59
2019-04-03T19:04:22.566Z,97942.57
2019-04-03T19:06:50.476Z,97926.48
2019-04-03T19:09:21.059Z,97897.78
2019-04-03T19:11:48.226Z,97883.34
2019-04-03T19:14:32.392Z,97896.35
2019-04-03T19:16:51.459Z,97897.44
2019-04-03T19:19:16.545Z,97895.17
2019-04-03T19:21:45.107Z,97909.20
2019-04-03T19:24:12.993Z,97903.55
2019-04-03T19:26:40.867Z,97910.69
2019-04-03T19:29:08.699Z,97897.95
2019-04-03T19:31:39.821Z,97874.17
2019-04-03T19:34:06.343Z,97865.27
2019-04-03T19:36:34.232Z,97860.32
2019-04-03T19:39:04.848Z,97857.79
2019-04-03T19:41:34.086Z,97856.58
2019-04-03T19:44:01.988Z,97861.00
2019-04-03T19:46:29.859Z,97864.25
2019-04-03T19:48:57.800Z,97866.70
2019-04-03T19:51:25.649Z,97860.64
2019-04-03T19:53:59.096Z,97852.67
2019-04-03T19:56:25.991Z,97857.14
2019-04-03T19:58:54.315Z,97867.61
2019-04-03T20:01:23.966Z,97862.86
2019-04-03T20:03:51.891Z,97860.79
2019-04-03T20:06:22.528Z,97864.90
2019-04-03T20:08:49.487Z,97868.67
2019-04-03T20:11:20.140Z,97871.98
2019-04-03T20:13:47.922Z,97872.73
2019-04-03T20:16:15.692Z,97887.38
2019-04-03T20:18:43.515Z,97892.21
2019-04-03T20:21:15.018Z,97892.63
2019-04-03T20:23:42.462Z,97900.70
2019-04-03T20:26:10.883Z,97902.03
2019-04-03T20:28:38.632Z,97891.45
2019-04-03T20:31:06.414Z,97901.09
2019-04-03T20:33:34.240Z,97899.76
2019-04-03T20:36:02.057Z,97898.13
2019-04-03T20:38:29.797Z,97898.48
2019-04-03T20:41:12.685Z,97892.48
2019-04-03T20:43:42.698Z,97889.91
2019-04-03T20:46:10.166Z,97887.84
2019-04-03T20:48:38.026Z,97890.40
2019-04-03T20:51:08.835Z,97899.77
2019-04-03T20:53:35.559Z,97890.59
2019-04-03T20:56:03.288Z,97882.85
2019-04-03T20:58:31.095Z,97889.27
2019-04-03T21:01:06.874Z,97890.53
2019-04-03T21:03:28.653Z,97896.14
2019-04-03T21:05:56.425Z,97903.48
2019-04-03T21:08:24.791Z,97904.65
2019-04-03T21:10:53.883Z,97917.22
2019-04-03T21:13:21.659Z,97910.84
2019-04-03T21:15:52.104Z,97906.39
2019-04-03T21:18:20.661Z,97904.70
2019-04-03T21:20:48.755Z,97907.31
2019-04-03T21:23:16.573Z,97902.41
2019-04-03T21:25:44.308Z,97900.68
2019-04-03T21:28:12.037Z,97908.16
2019-04-03T21:30:39.822Z,97901.76
2019-04-03T21:33:07.612Z,97902.25
2019-04-03T21:35:35.866Z,97899.91
2019-04-03T21:38:03.746Z,97897.13
2019-04-03T21:40:31.614Z,97905.64
2019-04-03T21:42:59.431Z,97894.81
2019-04-03T21:45:27.171Z,97881.26
2019-04-03T21:47:55.938Z,97898.16
2019-04-03T21:50:23.895Z,97899.49
2019-04-03T21:52:53.492Z,97906.02
2019-04-03T21:55:21.373Z,97903.98
2019-04-03T21:57:49.133Z,97890.49
2019-04-03T22:00:55.375Z,97876.86
2019-04-03T22:03:23.209Z,97873.59
2019-04-03T22:05:51.014Z,97881.61
2019-04-03T22:08:18.779Z,97880.78
2019-04-03T22:10:57.398Z,97878.08
2019-04-03T22:13:25.191Z,97888.95
2019-04-03T22:15:52.946Z,97896.57
2019-04-03T22:18:23.499Z,97916.20
2019-04-03T22:20:50.398Z,97917.30
2019-04-03T22:23:18.215Z,97918.88
2019-04-03T22:25:45.987Z,97914.59
2019-04-03T22:28:14.082Z,97910.30
2019-04-03T22:30:41.950Z,97920.63
2019-04-03T22:33:09.764Z,97923.03
2019-04-03T22:35:37.549Z,97919.25
2019-04-03T22:38:06.084Z,97917.94
2019-04-03T22:40:40.741Z,97919.25
2019-04-03T22:43:09.032Z,97926.75
2019-04-03T22:45:36.805Z,97919.67
2019-04-03T22:48:04.586Z,97907.48
2019-04-03T22:50:33.454Z,97906.77
2019-04-03T22:53:02.635Z,97900.42
2019-04-03T22:55:30.460Z,97911.39
2019-04-03T22:57:58.218Z,97906.24
2019-04-03T23:00:26.338Z,97912.36
2019-04-03T23:02:54.303Z,97910.13
2019-04-03T23:05:22.029Z,97922.83
2019-04-03T23:07:51.766Z,97931.91
2019-04-03T23:10:19.634Z,97937.84
2019-04-03T23:12:47.455Z,97934.63
2019-04-03T23:15:15.225Z,97939.92
2019-04-03T23:17:44.809Z,97957.73
2019-04-03T23:20:12.946Z,97952.59
2019-04-03T23:22:40.812Z,97945.48
2019-04-03T23:25:08.616Z,97937.59
2019-04-03T23:27:36.418Z,97938.39
2019-04-03T23:30:34.677Z,97938.73
2019-04-03T23:33:02.491Z,97930.27
2019-04-03T23:35:30.305Z,97926.88
2019-04-03T23:37:58.110Z,97930.16
2019-04-03T23:40:25.972Z,97925.70
2019-04-03T23:42:54.139Z,97924.80
2019-04-03T23:45:23.538Z,97925.29
2019-04-03T23:47:51.348Z,97921.48
2019-04-03T23:50:52.431Z,97925.98
2019-04-03T23:53:19.483Z,97932.67
2019-04-03T23:55:47.253Z,97931.39
2019-04-03T23:58:15.065Z,97929.20
